createdAt,value
2023-04-23T00:00:56.202Z,12.86
2023-04-23T00:01:57.965Z,12.86
2023-04-23T00:02:59.870Z,12.86
2023-04-23T00:04:01.853Z,12.86
2023-04-23T00:05:03.951Z,12.82
2023-04-23T00:06:05.915Z,12.82
2023-04-23T00:07:07.719Z,12.81
2023-04-23T00:08:09.610Z,12.82
2023-04-23T00:09:11.418Z,12.81
2023-04-23T00:10:13.410Z,12.80
2023-04-23T00:11:15.238Z,12.79
2023-04-23T00:12:17.320Z,12.78
2023-04-23T00:13:19.120Z,12.78
2023-04-23T00:14:20.826Z,12.76
2023-04-23T00:15:22.705Z,12.74
2023-04-23T00:16:24.725Z,12.73
2023-04-23T00:17:26.682Z,12.71
2023-04-23T00:18:28.447Z,12.70
2023-04-23T00:19:30.284Z,12.68
2023-04-23T00:20:32.065Z,12.67
2023-04-23T00:21:33.925Z,12.66
2023-04-23T00:22:35.711Z,12.66
2023-04-23T00:23:37.504Z,12.65
2023-04-23T00:24:39.658Z,12.65
2023-04-23T00:25:41.632Z,12.63
2023-04-23T00:26:43.451Z,12.62
2023-04-23T00:27:45.241Z,12.62
2023-04-23T00:28:47.039Z,12.61
2023-04-23T00:29:48.860Z,12.61
2023-04-23T00:30:50.653Z,12.62
2023-04-23T00:31:52.591Z,12.59
2023-04-23T00:32:54.402Z,12.60
2023-04-23T00:33:56.197Z,12.62
2023-04-23T00:34:58.084Z,12.59
2023-04-23T00:35:59.875Z,12.60
2023-04-23T00:37:01.704Z,12.58
2023-04-23T00:38:03.502Z,12.58
2023-04-23T00:39:05.321Z,12.59
2023-04-23T00:40:07.304Z,12.58
2023-04-23T00:41:09.109Z,12.57
2023-04-23T00:42:10.944Z,12.56
2023-04-23T00:43:12.747Z,12.57
2023-04-23T00:44:14.636Z,12.58
2023-04-23T00:45:16.430Z,12.58
2023-04-23T00:46:18.255Z,12.57
2023-04-23T00:47:20.100Z,12.56
2023-04-23T00:48:21.871Z,12.56
2023-04-23T00:49:23.668Z,12.56
2023-04-23T00:50:25.455Z,12.57
2023-04-23T00:51:27.335Z,12.55
2023-04-23T00:52:29.191Z,12.53
2023-04-23T00:53:30.984Z,12.53
2023-04-23T00:54:32.793Z,12.53
2023-04-23T00:55:34.588Z,12.52
2023-04-23T00:56:36.388Z,12.51
2023-04-23T00:57:38.233Z,12.51
2023-04-23T00:58:40.008Z,12.50
2023-04-23T00:59:41.809Z,12.49
2023-04-23T01:00:43.601Z,12.47
2023-04-23T01:01:45.398Z,12.45
2023-04-23T01:02:47.401Z,12.45
2023-04-23T01:03:49.546Z,12.44
2023-04-23T01:04:51.445Z,12.44
2023-04-23T01:05:53.234Z,12.43
2023-04-23T01:06:55.042Z,12.43
2023-04-23T01:07:56.873Z,12.43
2023-04-23T01:08:58.676Z,12.45
2023-04-23T01:10:00.481Z,12.45
2023-04-23T01:11:02.278Z,12.44
2023-04-23T01:12:04.065Z,12.45
2023-04-23T01:13:05.917Z,12.43
2023-04-23T01:14:07.731Z,12.44
2023-04-23T01:15:09.510Z,12.44
2023-04-23T01:16:12.710Z,12.44
2023-04-23T01:17:14.509Z,12.44
2023-04-23T01:18:16.358Z,12.44
2023-04-23T01:19:18.157Z,12.43
2023-04-23T01:20:19.956Z,12.43
2023-04-23T01:21:21.739Z,12.42
2023-04-23T01:22:23.542Z,12.41
2023-04-23T01:23:25.377Z,12.41
2023-04-23T01:24:27.190Z,12.42
2023-04-23T01:25:28.980Z,12.41
2023-04-23T01:26:30.774Z,12.41
2023-04-23T01:27:32.573Z,12.41
2023-04-23T01:28:34.422Z,12.41
2023-04-23T01:29:36.232Z,12.40
2023-04-23T01:30:38.079Z,12.40
2023-04-23T01:31:39.842Z,12.41
2023-04-23T01:32:41.658Z,12.40
2023-04-23T01:33:43.518Z,12.41
2023-04-23T01:34:45.297Z,12.40
2023-04-23T01:35:47.098Z,12.40
2023-04-23T01:36:48.885Z,12.41
2023-04-23T01:37:50.688Z,12.39
2023-04-23T01:38:52.538Z,12.37
2023-04-23T01:39:54.325Z,12.37
2023-04-23T01:40:56.134Z,12.37
2023-04-23T01:41:57.932Z,12.38
2023-04-23T01:42:59.737Z,12.37
2023-04-23T01:44:01.580Z,12.36
2023-04-23T01:45:03.361Z,12.35
2023-04-23T01:46:05.195Z,12.34
2023-04-23T01:47:07.219Z,12.34
2023-04-23T01:48:09.197Z,12.34
2023-04-23T01:49:11.020Z,12.33
2023-04-23T01:50:12.829Z,12.32
2023-04-23T01:51:15.003Z,12.32
2023-04-23T01:52:16.819Z,12.31
2023-04-23T01:53:18.629Z,12.31
2023-04-23T01:54:20.825Z,12.30
2023-04-23T01:55:22.578Z,12.28
2023-04-23T01:56:24.368Z,12.25
2023-04-23T01:57:26.174Z,12.24
2023-04-23T01:58:27.979Z,12.23
2023-04-23T01:59:29.803Z,12.21
2023-04-23T02:00:31.631Z,12.21
2023-04-23T02:01:33.411Z,12.21
2023-04-23T02:02:35.275Z,12.21
2023-04-23T02:03:37.244Z,12.21
2023-04-23T02:04:39.358Z,12.21
2023-04-23T02:05:41.357Z,12.20
2023-04-23T02:06:43.155Z,12.20
2023-04-23T02:07:44.958Z,12.19
2023-04-23T02:08:46.768Z,12.18
2023-04-23T02:09:48.614Z,12.17
2023-04-23T02:10:50.420Z,12.18
2023-04-23T02:11:52.225Z,12.17
2023-04-23T02:12:54.015Z,12.17
2023-04-23T02:13:55.838Z,12.17
2023-04-23T02:14:57.672Z,12.18
2023-04-23T02:15:59.467Z,12.18
2023-04-23T02:17:01.271Z,12.17
2023-04-23T02:18:03.065Z,12.17
2023-04-23T02:19:04.881Z,12.16
2023-04-23T02:20:07.032Z,12.17
2023-04-23T02:21:08.847Z,12.16
2023-04-23T02:22:10.664Z,12.15
2023-04-23T02:23:12.525Z,12.13
2023-04-23T02:24:14.266Z,12.12
2023-04-23T02:25:16.112Z,12.12
2023-04-23T02:26:17.894Z,12.11
2023-04-23T02:27:19.706Z,12.11
2023-04-23T02:28:21.618Z,12.11
2023-04-23T02:29:23.476Z,12.11
2023-04-23T02:30:25.275Z,12.09
2023-04-23T02:31:27.118Z,12.10
2023-04-23T02:32:28.930Z,12.09
2023-04-23T02:33:30.582Z,12.09
2023-04-23T02:34:32.385Z,12.10
2023-04-23T02:35:34.236Z,12.08
2023-04-23T02:36:36.046Z,12.08
2023-04-23T02:37:37.855Z,12.08
2023-04-23T02:38:39.647Z,12.07
2023-04-23T02:39:41.358Z,12.07
2023-04-23T02:40:43.187Z,12.07
2023-04-23T02:41:45.005Z,12.06
2023-04-23T02:42:46.806Z,12.04
2023-04-23T02:43:48.604Z,12.04
2023-04-23T02:44:50.396Z,12.03
2023-04-23T02:45:52.234Z,12.03
2023-04-23T02:46:54.075Z,12.04
2023-04-23T02:47:55.888Z,12.03
2023-04-23T02:48:57.649Z,12.04
2023-04-23T02:49:59.759Z,12.03
2023-04-23T02:51:01.605Z,12.02
2023-04-23T02:52:03.408Z,12.02
2023-04-23T02:53:05.206Z,12.03
2023-04-23T02:54:07.006Z,12.03
2023-04-23T02:55:08.804Z,12.02
2023-04-23T02:56:10.650Z,12.02
2023-04-23T02:57:12.439Z,12.02
2023-04-23T02:58:14.238Z,12.02
2023-04-23T02:59:16.037Z,12.01
2023-04-23T03:00:17.842Z,12.01
2023-04-23T03:01:19.738Z,12.01
2023-04-23T03:02:21.598Z,12.02
2023-04-23T03:03:23.703Z,12.03
2023-04-23T03:04:25.613Z,12.03
2023-04-23T03:05:27.383Z,12.03
2023-04-23T03:06:29.214Z,12.05
2023-04-23T03:07:31.010Z,12.05
2023-04-23T03:08:32.837Z,12.06
2023-04-23T03:09:34.748Z,12.08
2023-04-23T03:10:36.535Z,12.09
2023-04-23T03:11:38.370Z,12.10
2023-04-23T03:12:40.373Z,12.11
2023-04-23T03:13:42.173Z,12.11
2023-04-23T03:14:44.049Z,12.14
2023-04-23T03:15:45.765Z,12.14
2023-04-23T03:16:47.668Z,12.18
2023-04-23T03:17:49.446Z,12.20
2023-04-23T03:18:51.207Z,12.23
2023-04-23T03:19:53.331Z,12.24
2023-04-23T03:20:55.189Z,12.26
2023-04-23T03:21:57.024Z,12.31
2023-04-23T03:22:58.828Z,12.33
2023-04-23T03:24:00.632Z,12.34
2023-04-23T03:25:02.440Z,12.38
2023-04-23T03:26:04.249Z,12.39
2023-04-23T03:27:06.090Z,12.41
2023-04-23T03:28:07.857Z,12.43
2023-04-23T03:29:09.664Z,12.44
2023-04-23T03:30:11.675Z,12.44
2023-04-23T03:31:13.493Z,12.45
2023-04-23T03:32:15.309Z,12.47
2023-04-23T03:33:17.095Z,12.49
2023-04-23T03:34:18.896Z,12.52
2023-04-23T03:35:20.696Z,12.56
2023-04-23T03:36:22.500Z,12.59
2023-04-23T03:37:24.396Z,12.62
2023-04-23T03:38:26.168Z,12.64
2023-04-23T03:39:27.966Z,12.67
2023-04-23T03:40:29.778Z,12.71
2023-04-23T03:41:31.572Z,12.74
2023-04-23T03:42:33.400Z,12.79
2023-04-23T03:43:35.194Z,12.83
2023-04-23T03:44:37.008Z,12.86
2023-04-23T03:45:38.822Z,12.91
2023-04-23T03:46:40.613Z,12.93
2023-04-23T03:47:42.446Z,12.97
2023-04-23T03:48:44.248Z,13.00
2023-04-23T03:49:46.062Z,13.03
2023-04-23T03:50:47.876Z,13.07
2023-04-23T03:51:49.658Z,13.08
2023-04-23T03:52:51.489Z,13.11
2023-04-23T03:53:53.278Z,13.15
2023-04-23T03:54:55.097Z,13.19
2023-04-23T03:55:56.898Z,13.22
2023-04-23T03:56:58.714Z,13.25
2023-04-23T03:58:00.552Z,13.29
2023-04-23T03:59:02.343Z,13.32
2023-04-23T04:00:04.353Z,13.36
2023-04-23T04:01:06.143Z,13.39
2023-04-23T04:02:08.036Z,13.41
2023-04-23T04:03:09.957Z,13.44
2023-04-23T04:04:12.172Z,13.52
2023-04-23T04:05:14.254Z,13.52
2023-04-23T04:06:16.311Z,13.56
2023-04-23T04:07:18.114Z,13.61
2023-04-23T04:08:19.947Z,13.64
2023-04-23T04:09:21.744Z,13.71
2023-04-23T04:10:23.545Z,13.75
2023-04-23T04:11:25.349Z,13.78
2023-04-23T04:12:27.155Z,13.85
2023-04-23T04:13:29.004Z,13.89
2023-04-23T04:14:30.790Z,13.94
2023-04-23T04:15:32.585Z,13.98
2023-04-23T04:16:34.434Z,14.05
2023-04-23T04:17:36.234Z,14.11
2023-04-23T04:18:38.010Z,14.16
2023-04-23T04:19:39.825Z,14.22
2023-04-23T04:20:41.611Z,14.27
2023-04-23T04:21:43.414Z,14.31
2023-04-23T04:22:45.203Z,14.36
2023-04-23T04:23:47.057Z,14.42
2023-04-23T04:24:48.871Z,14.52
2023-04-23T04:25:50.670Z,14.52
2023-04-23T04:26:52.468Z,14.57
2023-04-23T04:27:54.267Z,14.63
2023-04-23T04:28:56.109Z,14.68
2023-04-23T04:29:57.902Z,14.71
2023-04-23T04:30:59.686Z,14.77
2023-04-23T04:32:01.853Z,14.83
2023-04-23T04:33:03.679Z,14.92
2023-04-23T04:34:05.491Z,14.92
2023-04-23T04:35:07.284Z,14.97
2023-04-23T04:36:09.183Z,15.02
2023-04-23T04:37:10.988Z,15.06
2023-04-23T04:38:12.806Z,15.10
2023-04-23T04:39:14.736Z,15.15
2023-04-23T04:40:16.669Z,15.18
2023-04-23T04:41:18.470Z,15.23
2023-04-23T04:42:20.287Z,15.26
2023-04-23T04:43:22.061Z,15.30
2023-04-23T04:44:23.993Z,15.35
2023-04-23T04:45:25.813Z,15.39
2023-04-23T04:46:27.631Z,15.41
2023-04-23T04:47:29.413Z,15.44
2023-04-23T04:48:31.203Z,15.49
2023-04-23T04:49:33.037Z,15.52
2023-04-23T04:50:34.847Z,15.56
2023-04-23T04:51:36.639Z,15.57
2023-04-23T04:52:38.431Z,15.60
2023-04-23T04:53:40.321Z,15.62
2023-04-23T04:54:42.535Z,15.63
2023-04-23T04:55:44.560Z,15.65
2023-04-23T04:56:46.358Z,15.67
2023-04-23T04:57:48.162Z,15.69
2023-04-23T04:58:50.029Z,15.72
2023-04-23T04:59:51.859Z,15.74
2023-04-23T05:00:53.695Z,15.74
2023-04-23T05:01:55.575Z,15.76
2023-04-23T05:02:57.468Z,15.78
2023-04-23T05:03:59.766Z,15.79
2023-04-23T05:05:01.812Z,15.79
2023-04-23T05:06:03.596Z,15.79
2023-04-23T05:07:05.424Z,15.80
2023-04-23T05:08:07.214Z,15.83
2023-04-23T05:09:09.047Z,15.83
2023-04-23T05:10:11.385Z,15.84
2023-04-23T05:11:13.206Z,15.85
2023-04-23T05:12:14.995Z,15.88
2023-04-23T05:13:16.777Z,15.91
2023-04-23T05:14:18.594Z,15.95
2023-04-23T05:15:20.441Z,15.99
2023-04-23T05:16:22.242Z,16.02
2023-04-23T05:17:24.056Z,16.06
2023-04-23T05:18:25.828Z,16.09
2023-04-23T05:19:27.618Z,16.12
2023-04-23T05:20:29.462Z,16.17
2023-04-23T05:21:31.254Z,16.19
2023-04-23T05:22:33.049Z,16.22
2023-04-23T05:23:34.843Z,16.24
2023-04-23T05:24:36.649Z,16.27
2023-04-23T05:25:38.559Z,16.29
2023-04-23T05:26:40.306Z,16.31
2023-04-23T05:27:42.098Z,16.33
2023-04-23T05:28:43.897Z,16.34
2023-04-23T05:29:45.705Z,16.37
2023-04-23T05:30:47.535Z,16.38
2023-04-23T05:31:49.349Z,16.39
2023-04-23T05:32:51.210Z,16.40
2023-04-23T05:33:53.066Z,16.40
2023-04-23T05:34:54.873Z,16.40
2023-04-23T05:35:56.675Z,16.43
2023-04-23T05:36:58.460Z,16.44
2023-04-23T05:38:00.251Z,16.47
2023-04-23T05:39:02.056Z,16.48
2023-04-23T05:40:03.857Z,16.49
2023-04-23T05:41:05.698Z,16.49
2023-04-23T05:42:07.484Z,16.48
2023-04-23T05:43:09.284Z,16.48
2023-04-23T05:44:11.106Z,16.48
2023-04-23T05:45:12.958Z,16.48
2023-04-23T05:46:14.815Z,16.49
2023-04-23T05:47:16.571Z,16.48
2023-04-23T05:48:18.381Z,16.50
2023-04-23T05:49:20.185Z,16.50
2023-04-23T05:50:21.984Z,16.52
2023-04-23T05:51:23.835Z,16.53
2023-04-23T05:52:25.626Z,16.54
2023-04-23T05:53:27.429Z,16.55
2023-04-23T05:54:29.226Z,16.56
2023-04-23T05:55:31.041Z,16.58
2023-04-23T05:56:32.899Z,16.59
2023-04-23T05:57:34.689Z,16.59
2023-04-23T05:58:36.957Z,16.59
2023-04-23T05:59:38.767Z,16.61
2023-04-23T06:00:40.554Z,16.62
2023-04-23T06:01:42.405Z,16.65
2023-04-23T06:02:44.323Z,16.65
2023-04-23T06:03:46.474Z,16.68
2023-04-23T06:04:49.192Z,16.69
2023-04-23T06:05:51.499Z,16.71
2023-04-23T06:06:53.383Z,16.73
2023-04-23T06:07:55.182Z,16.75
2023-04-23T06:08:56.979Z,16.76
2023-04-23T06:09:58.791Z,16.80
2023-04-23T06:11:00.576Z,16.82
2023-04-23T06:12:02.438Z,16.84
2023-04-23T06:13:05.265Z,16.86
2023-04-23T06:14:07.068Z,16.89
2023-04-23T06:15:08.874Z,16.90
2023-04-23T06:16:12.038Z,16.91
2023-04-23T06:17:13.842Z,16.93
2023-04-23T06:18:15.722Z,16.96
2023-04-23T06:19:17.574Z,16.98
2023-04-23T06:20:19.367Z,17.02
2023-04-23T06:21:21.152Z,17.04
2023-04-23T06:22:22.987Z,17.06
2023-04-23T06:23:24.774Z,17.08
2023-04-23T06:24:26.571Z,17.11
2023-04-23T06:25:28.494Z,17.13
2023-04-23T06:26:32.171Z,17.16
2023-04-23T06:27:33.926Z,17.16
2023-04-23T06:28:35.713Z,17.18
2023-04-23T06:29:37.518Z,17.18
2023-04-23T06:30:39.326Z,17.21
2023-04-23T06:31:41.160Z,17.22
2023-04-23T06:32:42.997Z,17.25
2023-04-23T06:33:44.744Z,17.26
2023-04-23T06:34:59.300Z,17.29
2023-04-23T06:35:50.191Z,17.31
2023-04-23T06:36:51.989Z,17.34
2023-04-23T06:37:53.832Z,17.37
2023-04-23T06:38:56.829Z,17.40
2023-04-23T06:39:58.627Z,17.42
2023-04-23T06:41:00.432Z,17.42
2023-04-23T06:42:02.232Z,17.44
2023-04-23T06:43:04.070Z,17.47
2023-04-23T06:44:05.878Z,17.50
2023-04-23T06:45:07.697Z,17.53
2023-04-23T06:46:09.571Z,17.53
2023-04-23T06:47:11.428Z,17.53
2023-04-23T06:48:13.378Z,17.52
2023-04-23T06:49:15.126Z,17.53
2023-04-23T06:50:16.936Z,17.56
2023-04-23T06:51:18.722Z,17.57
2023-04-23T06:52:20.617Z,17.61
2023-04-23T06:53:22.532Z,17.64
2023-04-23T06:54:24.277Z,17.68
2023-04-23T06:55:26.092Z,17.73
2023-04-23T06:56:27.887Z,17.76
2023-04-23T06:57:29.795Z,17.80
2023-04-23T06:58:31.614Z,17.83
2023-04-23T06:59:33.421Z,17.88
2023-04-23T07:00:35.236Z,17.91
2023-04-23T07:01:38.854Z,17.95
2023-04-23T07:02:40.742Z,17.98
2023-04-23T07:03:44.921Z,18.02
2023-04-23T07:04:46.826Z,18.08
2023-04-23T07:05:48.821Z,18.13
2023-04-23T07:06:50.662Z,18.18
2023-04-23T07:07:52.435Z,18.23
2023-04-23T07:08:54.280Z,18.28
2023-04-23T07:09:56.081Z,18.34
2023-04-23T07:10:57.894Z,18.36
2023-04-23T07:11:59.679Z,18.39
2023-04-23T07:13:01.470Z,18.44
2023-04-23T07:14:03.307Z,18.47
2023-04-23T07:15:05.108Z,18.51
2023-04-23T07:16:07.338Z,18.55
2023-04-23T07:17:09.172Z,18.59
2023-04-23T07:18:10.822Z,18.63
2023-04-23T07:19:12.690Z,18.64
2023-04-23T07:20:14.476Z,18.64
2023-04-23T07:21:16.292Z,18.63
2023-04-23T07:22:18.109Z,18.60
2023-04-23T07:23:19.897Z,18.58
2023-04-23T07:24:21.735Z,18.58
2023-04-23T07:25:23.556Z,18.60
2023-04-23T07:26:25.383Z,18.66
2023-04-23T07:27:27.180Z,18.72
2023-04-23T07:28:28.995Z,18.75
2023-04-23T07:29:30.813Z,18.79
2023-04-23T07:30:32.614Z,18.82
2023-04-23T07:31:34.418Z,18.87
2023-04-23T07:32:36.227Z,18.88
2023-04-23T07:33:38.007Z,18.92
2023-04-23T07:34:40.077Z,18.94
2023-04-23T07:35:41.966Z,18.95
2023-04-23T07:36:43.746Z,18.99
2023-04-23T07:37:45.659Z,19.01
2023-04-23T07:38:47.483Z,19.03
2023-04-23T07:39:49.543Z,19.06
2023-04-23T07:40:51.412Z,19.08
2023-04-23T07:41:53.212Z,19.12
2023-04-23T07:42:55.019Z,19.15
2023-04-23T07:43:56.826Z,19.16
2023-04-23T07:44:58.644Z,19.16
2023-04-23T07:46:00.592Z,19.16
2023-04-23T07:47:02.505Z,19.13
2023-04-23T07:48:04.278Z,19.07
2023-04-23T07:49:06.077Z,19.04
2023-04-23T07:50:08.223Z,19.06
2023-04-23T07:51:10.039Z,19.09
2023-04-23T07:52:11.825Z,19.13
2023-04-23T07:53:13.618Z,19.17
2023-04-23T07:54:15.425Z,19.20
2023-04-23T07:55:17.276Z,19.21
2023-04-23T07:56:19.181Z,19.22
2023-04-23T07:57:21.026Z,19.22
2023-04-23T07:58:22.801Z,19.23
2023-04-23T07:59:24.755Z,19.20
2023-04-23T08:00:26.575Z,19.20
2023-04-23T08:01:28.383Z,19.19
2023-04-23T08:02:30.276Z,19.19
2023-04-23T08:03:32.302Z,19.12
2023-04-23T08:04:34.457Z,19.09
2023-04-23T08:05:36.478Z,19.06
2023-04-23T08:06:38.252Z,19.08
2023-04-23T08:07:40.058Z,19.10
2023-04-23T08:08:41.871Z,19.13
2023-04-23T08:09:44.037Z,19.12
2023-04-23T08:10:46.031Z,19.10
2023-04-23T08:11:47.831Z,19.06
2023-04-23T08:12:49.634Z,19.06
2023-04-23T08:13:51.468Z,19.06
2023-04-23T08:14:54.286Z,19.07
2023-04-23T08:15:56.156Z,19.10
2023-04-23T08:16:57.969Z,19.12
2023-04-23T08:17:59.798Z,19.14
2023-04-23T08:19:05.274Z,19.14
2023-04-23T08:20:05.491Z,19.15
2023-04-23T08:21:07.293Z,19.16
2023-04-23T08:22:09.106Z,19.16
2023-04-23T08:23:10.930Z,19.16
2023-04-23T08:24:12.818Z,19.17
2023-04-23T08:25:14.579Z,19.17
2023-04-23T08:26:16.516Z,19.17
2023-04-23T08:27:18.320Z,19.17
2023-04-23T08:28:20.112Z,19.15
2023-04-23T08:29:21.906Z,19.16
2023-04-23T08:30:23.753Z,19.15
2023-04-23T08:31:27.269Z,19.14
2023-04-23T08:32:29.376Z,19.10
2023-04-23T08:33:31.239Z,19.07
2023-04-23T08:34:34.553Z,19.03
2023-04-23T08:35:36.652Z,19.00
2023-04-23T08:36:38.543Z,18.97
2023-04-23T08:37:40.355Z,18.98
2023-04-23T08:38:42.136Z,18.98
2023-04-23T08:39:44.214Z,18.99
2023-04-23T08:40:46.225Z,19.00
2023-04-23T08:41:48.033Z,19.00
2023-04-23T08:42:49.746Z,19.00
2023-04-23T08:43:51.563Z,19.00
2023-04-23T08:44:53.413Z,19.00
2023-04-23T08:45:55.216Z,19.00
2023-04-23T08:46:57.165Z,18.95
2023-04-23T08:48:01.850Z,18.99
2023-04-23T08:49:02.792Z,18.99
2023-04-23T08:50:04.640Z,18.94
2023-04-23T08:51:06.497Z,18.94
2023-04-23T08:52:08.351Z,18.92
2023-04-23T08:53:10.205Z,18.92
2023-04-23T08:54:12.002Z,18.91
2023-04-23T08:55:13.795Z,18.90
2023-04-23T08:56:15.634Z,18.88
2023-04-23T08:57:17.479Z,18.87
2023-04-23T08:58:19.335Z,18.86
2023-04-23T08:59:21.231Z,18.87
2023-04-23T09:00:23.372Z,18.87
2023-04-23T09:01:25.430Z,18.89
2023-04-23T09:02:27.520Z,18.91
2023-04-23T09:03:29.438Z,18.91
2023-04-23T09:04:31.480Z,18.93
2023-04-23T09:05:33.284Z,18.94
2023-04-23T09:06:35.099Z,18.96
2023-04-23T09:07:37.268Z,18.97
2023-04-23T09:08:39.034Z,18.98
2023-04-23T09:09:41.275Z,19.00
2023-04-23T09:10:43.333Z,19.02
2023-04-23T09:11:45.175Z,19.05
2023-04-23T09:12:46.973Z,19.05
2023-04-23T09:13:48.789Z,19.04
2023-04-23T09:14:50.591Z,19.04
2023-04-23T09:15:52.389Z,19.04
2023-04-23T09:16:54.330Z,19.08
2023-04-23T09:17:57.305Z,19.09
2023-04-23T09:18:59.278Z,19.11
2023-04-23T09:20:01.096Z,19.14
2023-04-23T09:21:02.874Z,19.16
2023-04-23T09:22:04.704Z,19.16
2023-04-23T09:23:06.542Z,19.15
2023-04-23T09:24:08.356Z,19.15
2023-04-23T09:25:10.136Z,19.15
2023-04-23T09:26:12.554Z,19.17
2023-04-23T09:27:14.342Z,19.17
2023-04-23T09:28:16.208Z,19.15
2023-04-23T09:29:17.995Z,19.11
2023-04-23T09:30:19.824Z,19.07
2023-04-23T09:31:21.675Z,19.05
2023-04-23T09:32:23.512Z,19.04
2023-04-23T09:33:25.374Z,19.04
2023-04-23T09:34:27.202Z,19.03
2023-04-23T09:35:29.013Z,19.03
2023-04-23T09:36:30.796Z,19.03
2023-04-23T09:37:32.610Z,19.04
2023-04-23T09:38:34.466Z,19.05
2023-04-23T09:39:36.291Z,19.02
2023-04-23T09:40:38.279Z,19.01
2023-04-23T09:41:40.533Z,18.99
2023-04-23T09:42:42.434Z,18.97
2023-04-23T09:43:44.400Z,18.97
2023-04-23T09:44:46.195Z,18.96
2023-04-23T09:45:48.075Z,18.95
2023-04-23T09:46:49.861Z,18.94
2023-04-23T09:47:51.901Z,18.92
2023-04-23T09:48:53.762Z,18.93
2023-04-23T09:49:55.592Z,18.92
2023-04-23T09:50:57.374Z,18.93
2023-04-23T09:51:59.181Z,18.94
2023-04-23T09:53:01.051Z,18.93
2023-04-23T09:54:02.925Z,18.94
2023-04-23T09:55:05.080Z,18.94
2023-04-23T09:56:07.352Z,18.93
2023-04-23T09:57:09.167Z,18.94
2023-04-23T09:58:11.090Z,18.93
2023-04-23T09:59:13.089Z,18.89
2023-04-23T10:00:15.517Z,18.89
2023-04-23T10:01:17.519Z,18.93
2023-04-23T10:02:19.408Z,18.93
2023-04-23T10:03:21.427Z,18.93
2023-04-23T10:04:23.587Z,18.93
2023-04-23T10:05:31.338Z,18.93
2023-04-23T10:06:42.295Z,18.94
2023-04-23T10:07:32.891Z,18.92
2023-04-23T10:08:34.699Z,18.93
2023-04-23T10:09:36.582Z,18.94
2023-04-23T10:10:53.272Z,18.93
2023-04-23T10:11:42.400Z,18.95
2023-04-23T10:12:54.379Z,18.93
2023-04-23T10:13:47.847Z,18.95
2023-04-23T10:14:49.711Z,18.98
2023-04-23T10:15:51.693Z,19.00
2023-04-23T10:16:53.727Z,19.01
2023-04-23T10:17:55.792Z,19.04
2023-04-23T10:18:57.836Z,19.02
2023-04-23T10:19:59.714Z,19.07
2023-04-23T10:21:01.529Z,19.09
2023-04-23T10:22:18.181Z,19.12
2023-04-23T10:23:06.990Z,19.16
2023-04-23T10:24:08.808Z,19.20
2023-04-23T10:25:10.671Z,19.20
2023-04-23T10:26:12.539Z,19.23
2023-04-23T10:27:25.241Z,19.24
2023-04-23T10:28:17.938Z,19.23
2023-04-23T10:29:19.741Z,19.20
2023-04-23T10:30:21.809Z,19.19
2023-04-23T10:31:23.809Z,19.18
2023-04-23T10:32:25.669Z,19.16
2023-04-23T10:33:31.807Z,19.09
2023-04-23T10:34:31.101Z,19.04
2023-04-23T10:35:33.046Z,19.00
2023-04-23T10:36:35.127Z,18.98
2023-04-23T10:37:36.933Z,18.97
2023-04-23T10:38:45.459Z,18.95
2023-04-23T10:39:42.835Z,18.96
2023-04-23T10:40:44.840Z,18.94
2023-04-23T10:41:46.649Z,18.93
2023-04-23T10:42:48.444Z,18.91
2023-04-23T10:43:50.267Z,18.90
2023-04-23T10:44:59.456Z,18.88
2023-04-23T10:45:55.768Z,18.89
2023-04-23T10:46:57.689Z,18.88
2023-04-23T10:47:59.530Z,18.88
2023-04-23T10:49:01.301Z,18.85
2023-04-23T10:50:03.829Z,18.83
2023-04-23T10:51:17.520Z,18.74
2023-04-23T10:52:19.602Z,18.74
2023-04-23T10:53:12.938Z,18.74
2023-04-23T10:54:14.760Z,18.74
2023-04-23T10:55:16.605Z,18.76
2023-04-23T10:56:18.478Z,18.76
2023-04-23T10:57:20.314Z,18.80
2023-04-23T10:58:22.119Z,18.81
2023-04-23T10:59:23.923Z,18.82
2023-04-23T11:00:25.828Z,18.83
2023-04-23T11:01:27.813Z,18.83
2023-04-23T11:02:29.834Z,18.85
2023-04-23T11:03:32.234Z,18.86
2023-04-23T11:04:34.393Z,18.86
2023-04-23T11:05:36.560Z,18.87
2023-04-23T11:06:38.577Z,18.88
2023-04-23T11:07:40.660Z,18.89
2023-04-23T11:08:42.452Z,18.88
2023-04-23T11:09:44.463Z,18.88
2023-04-23T11:10:46.661Z,18.91
2023-04-23T11:11:48.749Z,18.92
2023-04-23T11:12:50.608Z,18.95
2023-04-23T11:13:52.585Z,18.96
2023-04-23T11:14:54.490Z,18.97
2023-04-23T11:15:56.290Z,18.99
2023-04-23T11:16:58.127Z,19.00
2023-04-23T11:17:59.992Z,19.01
2023-04-23T11:19:01.829Z,19.02
2023-04-23T11:20:04.043Z,19.03
2023-04-23T11:21:09.486Z,19.03
2023-04-23T11:22:11.467Z,19.04
2023-04-23T11:23:13.290Z,19.04
2023-04-23T11:24:15.140Z,19.05
2023-04-23T11:25:18.143Z,19.05
2023-04-23T11:26:21.822Z,19.05
2023-04-23T11:27:23.721Z,19.06
2023-04-23T11:28:26.621Z,19.07
2023-04-23T11:29:29.546Z,19.08
2023-04-23T11:30:31.483Z,19.09
2023-04-23T11:31:33.347Z,19.08
2023-04-23T11:32:35.428Z,19.08
2023-04-23T11:33:37.368Z,19.07
2023-04-23T11:34:39.168Z,19.08
2023-04-23T11:35:41.008Z,19.09
2023-04-23T11:36:45.596Z,19.09
2023-04-23T11:37:48.623Z,19.09
2023-04-23T11:38:50.448Z,19.10
2023-04-23T11:39:52.378Z,19.11
2023-04-23T11:40:54.192Z,19.09
2023-04-23T11:41:56.039Z,19.07
2023-04-23T11:42:58.135Z,19.07
2023-04-23T11:43:59.966Z,19.06
2023-04-23T11:45:01.766Z,19.06
2023-04-23T11:46:03.761Z,19.05
2023-04-23T11:47:07.974Z,19.03
2023-04-23T11:48:10.131Z,19.01
2023-04-23T11:49:11.952Z,19.00
2023-04-23T11:50:14.038Z,18.99
2023-04-23T11:51:16.051Z,18.96
2023-04-23T11:52:17.915Z,18.96
2023-04-23T11:53:19.827Z,18.95
2023-04-23T11:54:21.782Z,18.95
2023-04-23T11:55:23.772Z,18.94
2023-04-23T11:56:25.652Z,18.93
2023-04-23T11:57:27.522Z,18.93
2023-04-23T11:58:29.488Z,18.94
2023-04-23T11:59:31.328Z,18.93
2023-04-23T12:00:33.267Z,18.93
2023-04-23T12:01:35.167Z,18.93
2023-04-23T12:02:37.029Z,18.92
2023-04-23T12:03:39.221Z,18.92
2023-04-23T12:04:41.462Z,18.93
2023-04-23T12:05:43.682Z,18.93
2023-04-23T12:06:45.715Z,18.91
2023-04-23T12:07:47.571Z,18.91
2023-04-23T12:08:49.392Z,18.90
2023-04-23T12:09:51.221Z,18.89
2023-04-23T12:10:53.102Z,18.89
2023-04-23T12:11:54.895Z,18.89
2023-04-23T12:12:56.734Z,18.88
2023-04-23T12:13:58.549Z,18.87
2023-04-23T12:15:00.377Z,18.85
2023-04-23T12:16:02.306Z,18.84
2023-04-23T12:17:04.117Z,18.82
2023-04-23T12:18:05.963Z,18.80
2023-04-23T12:19:07.830Z,18.77
2023-04-23T12:20:11.474Z,18.75
2023-04-23T12:21:13.285Z,18.74
2023-04-23T12:22:15.094Z,18.73
2023-04-23T12:23:16.969Z,18.71
2023-04-23T12:24:18.816Z,18.71
2023-04-23T12:25:20.640Z,18.70
2023-04-23T12:26:22.481Z,18.70
2023-04-23T12:27:24.232Z,18.70
2023-04-23T12:28:26.092Z,18.70
2023-04-23T12:29:27.972Z,18.70
2023-04-23T12:30:29.922Z,18.71
2023-04-23T12:31:31.813Z,18.70
2023-04-23T12:32:33.729Z,18.70
2023-04-23T12:33:35.561Z,18.71
2023-04-23T12:34:37.388Z,18.70
2023-04-23T12:35:39.186Z,18.70
2023-04-23T12:36:41.015Z,18.71
2023-04-23T12:37:42.793Z,18.71
2023-04-23T12:38:44.587Z,18.71
2023-04-23T12:39:46.441Z,18.70
2023-04-23T12:40:48.250Z,18.71
2023-04-23T12:41:50.082Z,18.70
2023-04-23T12:42:51.874Z,18.71
2023-04-23T12:43:53.689Z,18.70
2023-04-23T12:44:55.726Z,18.71
2023-04-23T12:45:57.771Z,18.72
2023-04-23T12:46:59.777Z,18.72
2023-04-23T12:48:01.810Z,18.72
2023-04-23T12:49:03.682Z,18.73
2023-04-23T12:50:05.676Z,18.73
2023-04-23T12:51:07.515Z,18.74
2023-04-23T12:52:10.855Z,18.75
2023-04-23T12:53:12.946Z,18.76
2023-04-23T12:54:14.732Z,18.75
2023-04-23T12:55:16.636Z,18.76
2023-04-23T12:56:18.616Z,18.77
2023-04-23T12:57:21.166Z,18.80
2023-04-23T12:58:23.028Z,18.82
2023-04-23T12:59:24.820Z,18.84
2023-04-23T13:00:26.757Z,18.86
2023-04-23T13:01:28.577Z,18.87
2023-04-23T13:02:30.557Z,18.88
2023-04-23T13:03:32.602Z,18.90
2023-04-23T13:04:34.445Z,18.91
2023-04-23T13:05:36.283Z,18.92
2023-04-23T13:06:38.079Z,18.94
2023-04-23T13:07:39.870Z,18.93
2023-04-23T13:08:41.808Z,18.93
2023-04-23T13:09:43.869Z,18.94
2023-04-23T13:10:45.975Z,18.96
2023-04-23T13:11:47.783Z,18.97
2023-04-23T13:12:49.587Z,18.97
2023-04-23T13:13:51.425Z,18.98
2023-04-23T13:14:53.231Z,18.99
2023-04-23T13:15:55.715Z,18.99
2023-04-23T13:16:57.974Z,19.00
2023-04-23T13:17:59.760Z,19.00